Time;durP1;ratioP1;P1;durP2;ratioP2;P2;SDS_P1;SDS_P2;PMS_P1;PMS_P2;Temp;Humidity;BMP_temperature;BMP_pressure;BME280_temperature;BME280_humidity;BME280_pressure;Samples;Min_cycle;Max_cycle;Signal;HPM_P1;HPM_P2
2022/04/28 00:00:19;;;;;;;15.40;10.97;;;6.30;99.90;;;;;;5029104;28;20222;-73
2022/04/28 00:02:46;;;;;;;15.77;10.23;;;6.30;99.90;;;;;;5028940;28;20251;-74
2022/04/28 00:05:12;;;;;;;15.40;10.53;;;6.20;99.90;;;;;;5028680;28;20411;-72
2022/04/28 00:07:39;;;;;;;15.73;10.43;;;6.30;99.90;;;;;;5028668;28;20441;-73
2022/04/28 00:10:06;;;;;;;20.80;12.10;;;6.30;99.90;;;;;;5011161;28;20909;-73
2022/04/28 00:12:32;;;;;;;16.27;10.83;;;6.20;99.90;;;;;;5030095;28;20492;-73
2022/04/28 00:14:58;;;;;;;24.40;11.57;;;6.20;99.90;;;;;;5029224;28;20431;-72
2022/04/28 00:17:23;;;;;;;15.43;10.03;;;6.10;99.90;;;;;;5010908;28;20558;-72
2022/04/28 00:19:49;;;;;;;16.23;10.00;;;6.20;99.90;;;;;;5010582;28;20223;-72
2022/04/28 00:22:16;;;;;;;15.73;9.40;;;6.00;99.90;;;;;;5028391;28;20264;-72
2022/04/28 00:24:43;;;;;;;10.17;7.60;;;6.00;99.90;;;;;;5028550;28;20189;-73
2022/04/28 00:27:08;;;;;;;9.70;7.63;;;5.90;99.90;;;;;;5028446;28;20896;-72
2022/04/28 00:29:34;;;;;;;11.93;8.93;;;5.90;99.90;;;;;;5010915;28;20437;-73
2022/04/28 00:32:01;;;;;;;9.90;8.30;;;5.80;99.90;;;;;;5010579;28;20689;-72
2022/04/28 00:34:27;;;;;;;9.63;8.20;;;5.80;99.90;;;;;;5028275;28;20434;-73
2022/04/28 00:36:53;;;;;;;11.30;9.47;;;5.80;99.90;;;;;;5028318;28;20427;-74
2022/04/28 00:39:19;;;;;;;11.90;9.20;;;5.80;99.90;;;;;;5010626;28;20269;-73
2022/04/28 00:41:44;;;;;;;15.57;10.63;;;5.80;99.90;;;;;;5028303;28;20184;-73
2022/04/28 00:44:11;;;;;;;13.83;9.90;;;5.80;99.90;;;;;;5031993;28;20452;-74
2022/04/28 00:46:43;;;;;;;15.20;11.03;;;5.80;99.90;;;;;;5031881;28;20185;-73
2022/04/28 00:51:54;;;;;;;13.37;9.27;;;5.90;99.90;;;;;;5034240;28;20403;-73
2022/04/28 00:54:21;;;;;;;12.23;10.20;;;5.80;99.90;;;;;;5017749;28;20427;-73
2022/04/28 00:56:46;;;;;;;14.33;10.57;;;5.80;99.90;;;;;;5021245;28;20954;-73
2022/04/28 00:59:12;;;;;;;12.87;9.80;;;5.80;99.90;;;;;;5019906;28;20466;-72
2022/04/28 01:01:38;;;;;;;13.77;9.50;;;5.80;99.90;;;;;;5039858;28;20291;-74
2022/04/28 01:04:04;;;;;;;13.47;9.43;;;5.80;99.90;;;;;;5038178;28;20634;-74
2022/04/28 01:06:29;;;;;;;13.30;9.80;;;5.70;99.90;;;;;;5032825;28;20543;-74
2022/04/28 01:08:57;;;;;;;14.50;10.00;;;5.70;99.90;;;;;;5014516;28;20446;-73
2022/04/28 01:11:24;;;;;;;14.70;10.13;;;5.60;99.90;;;;;;5031997;28;20200;-73
2022/04/28 01:13:49;;;;;;;13.10;10.13;;;5.60;99.90;;;;;;5031982;28;20427;-72
2022/04/28 01:16:16;;;;;;;14.53;10.43;;;5.60;99.90;;;;;;5031579;28;20423;-73
2022/04/28 01:18:41;;;;;;;16.13;10.20;;;5.60;99.90;;;;;;5031481;28;20243;-74
2022/04/28 01:21:08;;;;;;;17.57;11.23;;;5.50;99.90;;;;;;5031340;28;20501;-73
2022/04/28 01:23:36;;;;;;;19.67;12.77;;;5.50;99.90;;;;;;5031367;28;20203;-74
2022/04/28 01:26:02;;;;;;;18.40;12.73;;;5.50;99.90;;;;;;4996946;28;20777;-73
2022/04/28 01:28:32;;;;;;;19.20;13.77;;;5.50;99.90;;;;;;5030863;28;20447;-73
2022/04/28 01:31:03;;;;;;;19.67;13.87;;;5.40;99.90;;;;;;5030864;28;20863;-73
2022/04/28 01:33:29;;;;;;;20.07;14.07;;;5.40;99.90;;;;;;5031022;28;20455;-73
2022/04/28 01:35:55;;;;;;;16.40;12.80;;;5.40;99.90;;;;;;5013058;28;20505;-72
2022/04/28 01:38:20;;;;;;;18.40;13.97;;;5.50;99.90;;;;;;5031283;28;21126;-72
2022/04/28 01:40:46;;;;;;;20.43;13.37;;;5.50;99.90;;;;;;5030887;28;20716;-72
2022/04/28 01:43:12;;;;;;;18.10;13.43;;;5.40;99.90;;;;;;5031081;28;20615;-72
2022/04/28 01:45:37;;;;;;;18.00;12.77;;;5.40;99.90;;;;;;5012753;28;20220;-73
2022/04/28 01:48:04;;;;;;;19.07;12.30;;;5.40;99.90;;;;;;5013035;28;20204;-72
2022/04/28 01:50:30;;;;;;;16.83;12.13;;;5.40;99.90;;;;;;5012634;28;20196;-72
2022/04/28 01:55:39;;;;;;;18.00;13.37;;;5.40;99.90;;;;;;5030910;28;20196;-73
2022/04/28 01:58:05;;;;;;;18.93;13.53;;;5.40;99.90;;;;;;5030769;28;20674;-72
2022/04/28 02:00:32;;;;;;;22.70;14.43;;;5.40;99.90;;;;;;5030456;28;20172;-73
2022/04/28 02:02:57;;;;;;;21.00;13.87;;;5.30;99.90;;;;;;5011832;28;20179;-71
2022/04/28 02:05:23;;;;;;;23.57;15.83;;;5.30;99.90;;;;;;5029850;28;20498;-71
2022/04/28 02:07:49;;;;;;;24.43;16.33;;;5.30;99.90;;;;;;5030271;28;20203;-71
2022/04/28 02:10:14;;;;;;;24.70;16.37;;;5.30;99.90;;;;;;5030391;28;20185;-71
2022/04/28 02:12:40;;;;;;;23.37;17.40;;;5.30;99.90;;;;;;5030199;28;20184;-72
2022/04/28 02:15:06;;;;;;;27.10;17.03;;;5.40;99.90;;;;;;5012305;28;20188;-72
2022/04/28 02:17:35;;;;;;;25.40;16.80;;;5.30;99.90;;;;;;5012267;28;20258;-72
2022/04/28 02:20:06;;;;;;;24.70;17.13;;;5.20;99.90;;;;;;5029860;28;20466;-71
2022/04/28 02:22:32;;;;;;;30.37;18.07;;;5.30;99.90;;;;;;5030054;28;20861;-71
2022/04/28 02:24:57;;;;;;;28.30;17.03;;;5.30;99.90;;;;;;5029727;28;20438;-71
2022/04/28 02:27:24;;;;;;;25.50;17.07;;;5.30;99.90;;;;;;5029769;28;20459;-71
2022/04/28 02:29:53;;;;;;;24.37;15.90;;;5.30;99.90;;;;;;5029847;28;20830;-71
2022/04/28 02:32:19;;;;;;;25.30;17.50;;;5.20;99.90;;;;;;5030095;28;20485;-71
2022/04/28 02:34:44;;;;;;;26.20;17.03;;;5.20;99.90;;;;;;5012202;28;20419;-72
2022/04/28 02:37:10;;;;;;;28.00;18.47;;;5.20;99.90;;;;;;5029739;28;20215;-72
2022/04/28 02:39:35;;;;;;;26.47;17.47;;;5.20;99.90;;;;;;5029625;28;20216;-73
2022/04/28 02:42:01;;;;;;;25.77;17.83;;;5.20;99.90;;;;;;5011439;28;20181;-73
2022/04/28 02:44:27;;;;;;;25.23;16.23;;;5.20;99.90;;;;;;5029443;28;20206;-72
2022/04/28 02:46:53;;;;;;;29.10;17.87;;;5.20;99.90;;;;;;5011457;28;20187;-73
2022/04/28 02:49:18;;;;;;;26.43;17.90;;;5.20;99.90;;;;;;5029442;28;20184;-73
2022/04/28 02:51:44;;;;;;;26.53;18.00;;;5.40;99.90;;;;;;5029371;28;20185;-72
2022/04/28 02:54:10;;;;;;;26.67;17.77;;;5.50;99.90;;;;;;5029329;28;20184;-73
2022/04/28 02:56:36;;;;;;;28.30;16.57;;;5.60;99.90;;;;;;5029353;28;20196;-72
2022/04/28 02:59:02;;;;;;;23.67;16.23;;;5.60;99.90;;;;;;5028978;28;20467;-73
2022/04/28 03:01:28;;;;;;;24.30;16.90;;;5.60;99.90;;;;;;5029313;28;20184;-73
2022/04/28 03:03:54;;;;;;;21.83;15.87;;;5.70;99.90;;;;;;5029114;28;20415;-72
2022/04/28 03:11:51;;;;;;;25.20;16.20;;;5.60;99.90;;;;;;5029260;28;20495;-72
2022/04/28 03:14:16;;;;;;;26.83;15.27;;;5.60;99.90;;;;;;5029008;28;20431;-72
2022/04/28 03:16:42;;;;;;;21.30;13.90;;;5.60;99.90;;;;;;5029034;28;20790;-73
2022/04/28 03:19:09;;;;;;;18.40;13.53;;;5.60;99.90;;;;;;5029358;28;20218;-72
2022/04/28 03:21:35;;;;;;;23.23;15.53;;;5.60;99.90;;;;;;5028963;28;20426;-72
2022/04/28 03:24:01;;;;;;;23.20;14.70;;;5.60;99.90;;;;;;5011059;28;20480;-72
2022/04/28 03:26:28;;;;;;;20.60;14.30;;;5.60;99.90;;;;;;5028937;28;20480;-73
2022/04/28 03:28:54;;;;;;;24.90;14.50;;;5.50;99.90;;;;;;5028836;28;20532;-73
2022/04/28 03:31:20;;;;;;;21.83;15.40;;;5.60;99.90;;;;;;5028877;28;20430;-73
2022/04/28 03:33:46;;;;;;;19.27;13.70;;;5.60;99.90;;;;;;5029086;28;21116;-73
2022/04/28 03:38:56;;;;;;;24.40;12.77;;;5.60;99.90;;;;;;5029003;28;20230;-75
2022/04/28 03:41:22;;;;;;;17.83;12.80;;;5.60;99.90;;;;;;4994789;28;20501;-75
2022/04/28 03:43:48;;;;;;;23.70;13.73;;;5.60;99.90;;;;;;5028804;28;20426;-75
2022/04/28 03:46:18;;;;;;;17.13;12.03;;;5.60;99.90;;;;;;5011743;28;20194;-74
2022/04/28 03:48:44;;;;;;;21.27;13.80;;;5.60;99.90;;;;;;5030637;28;20707;-73
2022/04/28 03:51:11;;;;;;;19.30;12.97;;;5.60;99.90;;;;;;5028636;28;20908;-72
2022/04/28 03:53:37;;;;;;;19.80;13.63;;;5.60;99.90;;;;;;5028534;28;20427;-74
2022/04/28 03:56:02;;;;;;;16.47;12.20;;;5.60;99.90;;;;;;5028537;28;20427;-72
2022/04/28 03:58:28;;;;;;;25.13;15.00;;;5.60;99.90;;;;;;5028508;28;20297;-71
2022/04/28 04:00:54;;;;;;;21.37;14.83;;;5.70;99.90;;;;;;4994697;28;20195;-72
2022/04/28 04:03:20;;;;;;;23.00;14.30;;;5.80;99.90;;;;;;5028821;28;20239;-73
2022/04/28 04:05:47;;;;;;;21.23;14.30;;;5.70;99.90;;;;;;5028413;28;20181;-72
2022/04/28 04:08:13;;;;;;;20.13;13.33;;;5.70;99.90;;;;;;5010627;28;20891;-71
2022/04/28 04:10:39;;;;;;;20.20;13.67;;;5.70;99.90;;;;;;5028208;28;20434;-72
2022/04/28 04:13:05;;;;;;;19.17;13.77;;;5.60;99.90;;;;;;5010434;28;20523;-72
2022/04/28 04:15:32;;;;;;;19.43;13.13;;;5.60;99.90;;;;;;5010917;28;20276;-72
2022/04/28 04:17:58;;;;;;;21.37;13.40;;;5.50;99.90;;;;;;5012706;28;20499;-74
2022/04/28 04:20:25;;;;;;;19.63;13.00;;;5.60;99.90;;;;;;5014524;28;20463;-74
2022/04/28 04:22:51;;;;;;;17.83;11.83;;;5.60;99.90;;;;;;5032663;28;20473;-75
2022/04/28 04:25:17;;;;;;;16.20;11.77;;;5.60;99.90;;;;;;5014506;28;20445;-74
2022/04/28 04:27:43;;;;;;;15.57;11.47;;;5.60;99.90;;;;;;5014344;28;20446;-74
2022/04/28 04:32:53;;;;;;;15.03;11.00;;;5.60;99.90;;;;;;5032031;28;20185;-75
2022/04/28 04:35:19;;;;;;;16.00;11.70;;;5.60;99.90;;;;;;5031833;28;20420;-74
2022/04/28 04:37:44;;;;;;;17.17;11.37;;;5.50;99.90;;;;;;5031908;28;20208;-75
2022/04/28 04:40:11;;;;;;;15.10;10.67;;;5.50;99.90;;;;;;5031650;28;20231;-75
2022/04/28 04:42:37;;;;;;;16.17;11.23;;;5.60;99.90;;;;;;5031565;28;20184;-75
2022/04/28 04:45:03;;;;;;;14.63;10.97;;;5.60;99.90;;;;;;5031581;28;20423;-75
2022/04/28 04:47:29;;;;;;;18.53;12.33;;;5.60;99.90;;;;;;5013984;28;20446;-75
2022/04/28 04:49:54;;;;;;;15.10;11.53;;;5.80;99.90;;;;;;5014038;28;20481;-74
2022/04/28 04:52:20;;;;;;;18.00;11.07;;;5.70;99.90;;;;;;5031639;28;20225;-75
2022/04/28 04:54:46;;;;;;;15.07;10.53;;;5.70;99.90;;;;;;5031624;28;20196;-74
2022/04/28 04:57:11;;;;;;;17.40;11.17;;;5.90;99.90;;;;;;5031610;28;20208;-75
2022/04/28 04:59:37;;;;;;;15.60;11.70;;;5.90;99.90;;;;;;5031749;28;20208;-75
2022/04/28 05:02:03;;;;;;;15.60;11.90;;;6.00;99.90;;;;;;5031611;28;20255;-75
2022/04/28 05:04:29;;;;;;;21.87;12.20;;;6.00;99.90;;;;;;5031438;28;20267;-75
2022/04/28 05:06:55;;;;;;;14.20;10.73;;;6.00;99.90;;;;;;5031466;28;20184;-74
2022/04/28 05:09:20;;;;;;;17.10;11.93;;;6.10;99.90;;;;;;5013197;28;20443;-75
2022/04/28 05:11:46;;;;;;;14.13;10.97;;;6.10;99.90;;;;;;5013352;28;20199;-74
2022/04/28 05:14:12;;;;;;;20.77;11.47;;;6.10;99.90;;;;;;5013337;28;20191;-75
2022/04/28 05:16:37;;;;;;;19.37;11.87;;;6.20;99.90;;;;;;5013365;28;20216;-74
2022/04/28 05:19:03;;;;;;;15.40;12.70;;;6.20;99.90;;;;;;5031291;28;20311;-75
2022/04/28 05:21:29;;;;;;;18.13;12.30;;;6.30;99.90;;;;;;5031751;28;20242;-76
2022/04/28 05:23:54;;;;;;;14.83;11.70;;;6.50;99.90;;;;;;5016475;28;20231;-75
2022/04/28 05:26:20;;;;;;;14.63;11.27;;;6.60;99.90;;;;;;5015422;28;20196;-75
2022/04/28 05:28:47;;;;;;;20.40;12.50;;;6.70;99.90;;;;;;5031134;28;20212;-74
2022/04/28 05:31:12;;;;;;;17.93;12.70;;;6.80;99.90;;;;;;5031743;28;20279;-75
2022/04/28 05:33:41;;;;;;;15.27;12.53;;;7.00;99.90;;;;;;5030952;28;20514;-76
2022/04/28 05:36:09;;;;;;;19.70;13.70;;;7.00;99.90;;;;;;5030848;28;20185;-75
2022/04/28 05:38:36;;;;;;;16.90;13.13;;;7.40;99.90;;;;;;5030469;28;20475;-74
2022/04/28 05:41:03;;;;;;;18.30;13.70;;;7.50;99.90;;;;;;5030317;28;20416;-74
2022/04/28 05:46:14;;;;;;;14.87;11.30;;;8.00;99.90;;;;;;5029765;28;20418;-75
2022/04/28 05:48:40;;;;;;;16.60;12.83;;;8.10;99.90;;;;;;5011985;28;20446;-75
2022/04/28 05:51:05;;;;;;;17.70;12.27;;;8.30;99.90;;;;;;5029792;28;20195;-75
2022/04/28 05:53:31;;;;;;;16.90;13.30;;;8.40;99.90;;;;;;5011831;28;20188;-75
2022/04/28 05:55:56;;;;;;;16.70;13.60;;;8.60;99.90;;;;;;5029812;28;20196;-74
2022/04/28 05:58:22;;;;;;;21.07;14.23;;;8.70;99.90;;;;;;5012058;28;20204;-74
2022/04/28 06:00:48;;;;;;;17.77;13.33;;;8.80;99.90;;;;;;5029729;28;20555;-74
2022/04/28 06:03:13;;;;;;;19.03;14.33;;;8.90;99.90;;;;;;5029535;28;20180;-75
2022/04/28 06:05:39;;;;;;;20.83;13.00;;;9.10;99.90;;;;;;5029529;28;20192;-74
2022/04/28 06:08:05;;;;;;;17.47;13.37;;;9.30;99.90;;;;;;5029218;28;20737;-74
2022/04/28 06:10:30;;;;;;;15.23;12.30;;;9.50;99.90;;;;;;5011307;28;20180;-74
2022/04/28 06:12:56;;;;;;;13.87;11.30;;;9.60;99.90;;;;;;5028818;28;20190;-74
2022/04/28 06:15:21;;;;;;;15.53;12.33;;;9.80;99.90;;;;;;5028908;28;20227;-74
2022/04/28 06:17:47;;;;;;;12.90;11.47;;;9.90;99.90;;;;;;5028647;28;20234;-75
2022/04/28 06:20:13;;;;;;;14.70;11.97;;;10.20;99.90;;;;;;5028389;28;20308;-74
2022/04/28 06:22:39;;;;;;;17.20;11.50;;;10.40;99.90;;;;;;5028319;28;20178;-74
2022/04/28 06:25:05;;;;;;;13.80;10.83;;;10.50;99.90;;;;;;5011106;28;20193;-73
2022/04/28 06:27:31;;;;;;;15.70;11.80;;;10.80;99.90;;;;;;5010858;28;20445;-74
2022/04/28 06:29:56;;;;;;;16.60;11.03;;;10.90;99.90;;;;;;5010718;28;20889;-74
2022/04/28 06:32:22;;;;;;;12.00;10.40;;;11.10;99.90;;;;;;5028489;28;20564;-74
2022/04/28 06:34:48;;;;;;;12.50;10.20;;;11.30;99.90;;;;;;5010484;28;20187;-74
2022/04/28 06:37:14;;;;;;;13.60;10.83;;;11.50;99.90;;;;;;5028311;28;20273;-74
2022/04/28 06:39:41;;;;;;;13.23;10.13;;;11.70;99.90;;;;;;5027865;28;21095;-74
2022/04/28 06:42:07;;;;;;;12.60;9.70;;;11.90;99.90;;;;;;5028441;28;20415;-74
2022/04/28 06:44:33;;;;;;;12.23;8.73;;;12.00;99.90;;;;;;5028298;28;20438;-74
2022/04/28 06:46:59;;;;;;;11.80;8.87;;;12.10;99.90;;;;;;5028141;28;20418;-74
2022/04/28 06:49:24;;;;;;;12.30;10.10;;;12.20;99.90;;;;;;5010228;28;20481;-74
2022/04/28 06:51:50;;;;;;;11.63;9.40;;;12.40;99.90;;;;;;5028063;28;20746;-75
2022/04/28 06:54:16;;;;;;;11.20;9.60;;;12.50;99.90;;;;;;5010352;28;20198;-74
2022/04/28 06:56:41;;;;;;;10.57;8.43;;;12.70;99.90;;;;;;5009902;28;20189;-74
2022/04/28 06:59:07;;;;;;;11.83;9.13;;;12.80;99.90;;;;;;5010174;28;21138;-75
2022/04/28 07:01:33;;;;;;;9.87;8.57;;;12.90;99.90;;;;;;5028204;28;20193;-75
2022/04/28 07:03:58;;;;;;;11.30;9.87;;;13.00;99.90;;;;;;5028113;28;20677;-75
2022/04/28 07:06:24;;;;;;;14.63;9.20;;;13.00;99.90;;;;;;5009956;28;20185;-74
2022/04/28 07:08:50;;;;;;;9.93;7.97;;;13.10;99.90;;;;;;5028277;28;20582;-75
2022/04/28 07:11:16;;;;;;;10.27;8.57;;;13.30;99.90;;;;;;5028330;28;20769;-74
2022/04/28 07:13:41;;;;;;;11.07;8.00;;;13.20;99.90;;;;;;5010459;28;20218;-75
2022/04/28 07:16:07;;;;;;;10.13;8.40;;;13.40;99.90;;;;;;5028392;28;20418;-74
2022/04/28 07:18:32;;;;;;;13.83;9.40;;;13.50;99.90;;;;;;5027848;28;20598;-75
2022/04/28 07:21:03;;;;;;;17.70;7.77;;;13.70;99.90;;;;;;5028041;28;20636;-74
2022/04/28 07:23:28;;;;;;;7.63;6.83;;;13.90;99.90;;;;;;5009839;28;20184;-74
2022/04/28 07:25:54;;;;;;;11.53;9.63;;;14.00;99.90;;;;;;5027660;28;20963;-75
2022/04/28 07:28:20;;;;;;;7.53;6.73;;;14.00;99.90;;;;;;5027403;28;20206;-74
2022/04/28 07:30:46;;;;;;;10.23;8.43;;;14.00;99.90;;;;;;5027603;28;20418;-74
2022/04/28 07:33:11;;;;;;;8.50;7.17;;;14.20;99.90;;;;;;5027799;28;20210;-75
2022/04/28 07:35:37;;;;;;;11.40;7.77;;;14.30;99.90;;;;;;5027303;28;20279;-75
2022/04/28 07:38:04;;;;;;;8.90;7.73;;;14.40;99.90;;;;;;5027214;28;20208;-75
2022/04/28 07:40:30;;;;;;;14.30;10.03;;;14.70;99.90;;;;;;5027071;28;20572;-74
2022/04/28 07:42:56;;;;;;;7.93;7.00;;;14.70;99.90;;;;;;5027301;28;20503;-74
2022/04/28 07:45:22;;;;;;;10.50;6.80;;;14.80;99.90;;;;;;5028717;28;20461;-74
2022/04/28 07:47:49;;;;;;;12.90;7.30;;;14.80;99.90;;;;;;5029639;28;21042;-74
2022/04/28 07:50:15;;;;;;;7.60;6.83;;;15.10;99.90;;;;;;5027310;28;20427;-74
2022/04/28 07:52:41;;;;;;;9.70;7.10;;;15.10;99.90;;;;;;5028744;28;20936;-75
2022/04/28 07:55:08;;;;;;;9.30;6.40;;;15.20;99.90;;;;;;5031165;28;20505;-75
2022/04/28 07:57:34;;;;;;;13.50;6.17;;;15.30;99.90;;;;;;5031066;28;20438;-74
2022/04/28 07:59:59;;;;;;;7.80;6.27;;;15.40;99.90;;;;;;5031011;28;20875;-74
2022/04/28 08:02:26;;;;;;;7.43;5.70;;;15.50;99.90;;;;;;5031067;28;20511;-75
2022/04/28 08:04:52;;;;;;;9.87;6.00;;;15.60;99.90;;;;;;5030909;28;20180;-74
2022/04/28 08:07:18;;;;;;;8.83;4.90;;;15.80;99.10;;;;;;5031087;28;20438;-75
2022/04/28 08:09:44;;;;;;;8.60;6.10;;;15.80;97.60;;;;;;5031227;28;20512;-75
2022/04/28 08:12:10;;;;;;;9.93;6.37;;;15.90;98.60;;;;;;5031371;28;20746;-74
2022/04/28 08:14:37;;;;;;;11.70;5.70;;;16.00;98.70;;;;;;5031636;28;20188;-73
2022/04/28 08:17:03;;;;;;;9.17;4.50;;;16.10;96.60;;;;;;5013546;28;20778;-73
2022/04/28 08:19:30;;;;;;;5.67;4.30;;;16.20;94.60;;;;;;5013513;28;20632;-74
2022/04/28 08:21:55;;;;;;;6.40;4.40;;;15.90;78.10;;;;;;5031754;28;20427;-74
2022/04/28 08:24:21;;;;;;;5.10;4.63;;;15.90;82.30;;;;;;5030961;28;20772;-74
2022/04/28 08:26:47;;;;;;;4.33;3.90;;;15.70;77.20;;;;;;5031299;28;20685;-74
2022/04/28 08:29:12;;;;;;;8.40;4.00;;;15.60;79.00;;;;;;5031011;28;20209;-74
2022/04/28 08:31:43;;;;;;;5.30;3.70;;;15.40;77.20;;;;;;5031237;28;20185;-73
2022/04/28 08:34:10;;;;;;;6.00;3.83;;;15.60;76.40;;;;;;5031472;28;20176;-73
2022/04/28 08:36:36;;;;;;;6.70;4.37;;;15.40;74.50;;;;;;5012710;28;20423;-74
2022/04/28 08:39:02;;;;;;;4.23;3.83;;;15.50;73.20;;;;;;5030602;28;20463;-74
2022/04/28 08:41:32;;;;;;;3.80;3.50;;;15.90;80.00;;;;;;5030732;28;20198;-73
2022/04/28 08:44:00;;;;;;;7.27;4.47;;;16.40;79.70;;;;;;5031214;28;20768;-75
2022/04/28 08:49:12;;;;;;;8.20;3.97;;;16.70;70.80;;;;;;5030189;28;21090;-76
2022/04/28 08:51:39;;;;;;;7.63;4.90;;;16.40;71.60;;;;;;5030064;28;20427;-76
2022/04/28 08:54:05;;;;;;;4.40;4.00;;;16.40;74.30;;;;;;5030380;28;20420;-75
2022/04/28 08:56:31;;;;;;;6.20;4.30;;;16.60;74.00;;;;;;4995719;28;20426;-75
2022/04/28 08:58:57;;;;;;;5.33;4.40;;;16.70;72.40;;;;;;5031029;28;20816;-76
2022/04/28 09:01:25;;;;;;;4.80;4.30;;;17.30;76.50;;;;;;5031252;28;20590;-76
2022/04/28 09:03:51;;;;;;;4.50;4.10;;;17.50;70.70;;;;;;5013071;28;20535;-75
2022/04/28 09:06:17;;;;;;;5.67;3.80;;;17.80;70.00;;;;;;5030771;28;20861;-76
2022/04/28 09:08:44;;;;;;;6.27;4.00;;;18.00;64.80;;;;;;5012749;28;20205;-75
2022/04/28 09:11:24;;;;;;;4.83;4.33;;;17.90;66.60;;;;;;5031024;28;20199;-75
2022/04/28 09:14:10;;;;;;;4.97;4.03;;;18.10;65.40;;;;;;5030784;28;20934;-75
2022/04/28 09:16:41;;;;;;;5.50;4.47;;;18.40;68.50;;;;;;5030942;28;20420;-76
2022/04/28 09:19:08;;;;;;;5.80;4.73;;;18.60;62.20;;;;;;5030840;28;20476;-76
2022/04/28 09:21:35;;;;;;;4.50;4.10;;;18.60;59.70;;;;;;5012097;28;20435;-76
2022/04/28 09:24:02;;;;;;;4.13;2.93;;;19.00;59.50;;;;;;5030333;28;20830;-75
2022/04/28 09:26:29;;;;;;;5.47;3.60;;;19.60;63.60;;;;;;5030563;28;20444;-76
2022/04/28 09:28:55;;;;;;;6.33;3.60;;;19.80;59.20;;;;;;5011957;28;20457;-76
2022/04/28 09:31:21;;;;;;;3.50;3.20;;;20.00;58.40;;;;;;5030390;28;20436;-75
2022/04/28 09:33:50;;;;;;;5.17;3.97;;;20.30;58.60;;;;;;5030457;28;20185;-75
2022/04/28 09:36:16;;;;;;;3.80;3.50;;;20.30;53.90;;;;;;5029829;28;20417;-76
2022/04/28 09:38:42;;;;;;;4.40;4.10;;;20.30;52.60;;;;;;5011067;28;20473;-76
2022/04/28 09:43:56;;;;;;;4.60;3.40;;;19.60;56.90;;;;;;5029581;28;20252;-76
2022/04/28 09:46:23;;;;;;;3.60;3.17;;;19.90;55.20;;;;;;5029949;28;20468;-75
2022/04/28 09:48:50;;;;;;;5.47;3.53;;;20.20;54.60;;;;;;5033883;28;20543;-76
2022/04/28 09:51:22;;;;;;;3.40;3.10;;;21.00;55.50;;;;;;5013209;28;20667;-76
2022/04/28 09:53:49;;;;;;;3.53;3.17;;;20.40;50.40;;;;;;5031260;28;20829;-76
2022/04/28 09:56:16;;;;;;;5.20;3.80;;;20.40;51.20;;;;;;5012708;28;20510;-75
2022/04/28 09:58:42;;;;;;;5.13;3.83;;;20.50;51.90;;;;;;5029283;28;20462;-76
2022/04/28 10:01:08;;;;;;;4.57;4.03;;;20.90;52.50;;;;;;5031188;28;20417;-75
2022/04/28 10:03:35;;;;;;;5.87;3.83;;;21.00;50.70;;;;;;5015944;28;20482;-75
2022/04/28 10:06:06;;;;;;;4.03;3.27;;;21.30;52.90;;;;;;5029604;28;20939;-75
2022/04/28 10:08:33;;;;;;;6.30;4.33;;;21.50;49.90;;;;;;5029195;28;20481;-76
2022/04/28 10:11:01;;;;;;;4.53;4.17;;;21.70;48.90;;;;;;5028777;28;20418;-76
2022/04/28 10:13:29;;;;;;;4.30;3.90;;;21.00;50.80;;;;;;5028877;28;20868;-76
2022/04/28 10:16:04;;;;;;;4.00;3.40;;;20.60;48.50;;;;;;5028147;28;20423;-76
2022/04/28 10:18:38;;;;;;;3.63;3.33;;;20.80;49.70;;;;;;5028989;28;20440;-75
2022/04/28 10:21:08;;;;;;;4.00;3.60;;;21.50;51.70;;;;;;5011247;28;20923;-74
2022/04/28 10:32:23;;;;;;;8.97;3.27;;;21.30;51.40;;;;;;5029480;28;20422;-74
2022/04/28 10:35:06;;;;;;;3.13;2.90;;;21.10;48.00;;;;;;5013861;28;20415;-74
2022/04/28 10:37:40;;;;;;;4.80;3.90;;;21.90;49.80;;;;;;5028835;28;20540;-76
2022/04/28 10:40:13;;;;;;;5.77;4.50;;;21.70;48.50;;;;;;5029017;28;20471;-76
2022/04/28 10:42:38;;;;;;;4.50;3.57;;;21.30;47.50;;;;;;5028966;28;20418;-76
2022/04/28 10:45:22;;;;;;;3.23;3.00;;;20.90;47.80;;;;;;5028823;28;20846;-76
2022/04/28 10:47:48;;;;;;;3.13;2.93;;;21.70;49.70;;;;;;5029594;28;20573;-76
2022/04/28 10:50:24;;;;;;;4.60;3.13;;;22.10;48.10;;;;;;5028690;28;20427;-76
2022/04/28 10:53:20;;;;;;;4.10;3.10;;;22.60;53.70;;;;;;5010639;28;20433;-75
2022/04/28 10:55:49;;;;;;;6.13;3.47;;;22.70;47.80;;;;;;5026715;28;20438;-75
2022/04/28 10:58:26;;;;;;;6.73;2.80;;;23.00;46.30;;;;;;5028422;28;20525;-75
2022/04/28 11:00:55;;;;;;;3.43;3.13;;;22.80;44.70;;;;;;5028686;28;20927;-75
2022/04/28 11:03:47;;;;;;;3.90;3.60;;;22.80;43.80;;;;;;5028056;28;20407;-75
2022/04/28 11:06:18;;;;;;;3.90;3.60;;;22.50;44.40;;;;;;5027982;28;20407;-76
2022/04/28 11:08:49;;;;;;;12.00;3.43;;;22.50;44.30;;;;;;5027787;28;20442;-76
2022/04/28 11:11:16;;;;;;;8.20;3.63;;;22.30;43.40;;;;;;5028105;28;20416;-75
2022/04/28 11:13:46;;;;;;;4.03;3.10;;;21.70;44.20;;;;;;5027711;28;20411;-75
2022/04/28 11:16:13;;;;;;;3.50;3.20;;;21.70;44.40;;;;;;5010502;28;20452;-75
2022/04/28 11:18:39;;;;;;;4.40;3.47;;;22.10;44.80;;;;;;5009585;28;20443;-75
2022/04/28 11:21:05;;;;;;;3.73;3.20;;;21.80;45.00;;;;;;5027861;28;20414;-76
2022/04/28 11:23:37;;;;;;;7.47;4.23;;;21.90;44.70;;;;;;5027690;28;20421;-75
2022/04/28 11:26:03;;;;;;;2.90;2.70;;;21.80;44.10;;;;;;5009557;28;20200;-75
2022/04/28 11:28:31;;;;;;;4.50;3.20;;;22.50;44.90;;;;;;5027652;28;20500;-75
2022/04/28 11:30:58;;;;;;;3.00;2.80;;;22.20;43.30;;;;;;5028273;28;21280;-76
2022/04/28 11:33:24;;;;;;;3.50;3.20;;;22.60;44.70;;;;;;5028335;28;20490;-75
2022/04/28 11:35:50;;;;;;;6.23;3.20;;;22.80;46.00;;;;;;5010578;28;20518;-75
2022/04/28 11:38:26;;;;;;;3.97;3.30;;;23.20;43.80;;;;;;5028107;28;20243;-75
2022/04/28 11:41:00;;;;;;;8.10;3.10;;;23.50;43.20;;;;;;5010637;28;20188;-75
2022/04/28 11:43:31;;;;;;;3.37;2.83;;;23.60;44.90;;;;;;5028579;28;20407;-75
2022/04/28 11:45:58;;;;;;;4.97;3.60;;;23.80;44.20;;;;;;5028421;28;20912;-75
2022/04/28 11:48:29;;;;;;;4.00;3.10;;;23.40;42.30;;;;;;5028046;28;20419;-76
2022/04/28 11:51:02;;;;;;;5.53;3.40;;;23.10;41.80;;;;;;5028109;28;20411;-77
2022/04/28 11:53:42;;;;;;;3.93;2.87;;;22.20;42.90;;;;;;5028719;28;20399;-75
2022/04/28 11:56:25;;;;;;;3.70;3.37;;;22.90;44.00;;;;;;5029665;28;20415;-75
2022/04/28 11:58:52;;;;;;;8.20;4.10;;;23.10;44.60;;;;;;5010095;28;20478;-76
2022/04/28 12:01:22;;;;;;;3.90;3.60;;;22.40;44.10;;;;;;5028160;28;20451;-75
2022/04/28 12:03:55;;;;;;;3.83;3.17;;;22.50;46.30;;;;;;5027909;28;20442;-75
2022/04/28 12:06:22;;;;;;;7.30;3.60;;;21.60;44.60;;;;;;5028165;28;20845;-74
2022/04/28 12:08:56;;;;;;;3.80;3.50;;;21.90;47.30;;;;;;5028083;28;20439;-75
2022/04/28 12:14:22;;;;;;;3.37;3.13;;;21.90;43.40;;;;;;5028355;28;20438;-75
2022/04/28 12:19:57;;;;;;;3.70;3.40;;;22.50;44.90;;;;;;5027922;28;20551;-75
2022/04/28 12:22:36;;;;;;;4.20;3.10;;;22.80;46.30;;;;;;5027938;28;20418;-75
2022/04/28 12:25:17;;;;;;;4.50;3.47;;;22.90;45.80;;;;;;5027793;28;20441;-74
2022/04/28 12:28:01;;;;;;;9.13;3.60;;;22.80;44.90;;;;;;5010457;28;20980;-75
2022/04/28 12:30:27;;;;;;;16.80;4.73;;;23.00;45.30;;;;;;5027427;28;20446;-74
2022/04/28 12:32:54;;;;;;;4.37;3.97;;;23.30;45.20;;;;;;5009270;28;20837;-75
2022/04/28 12:35:25;;;;;;;7.30;3.40;;;23.60;43.60;;;;;;5026999;28;20207;-76
2022/04/28 12:37:59;;;;;;;2.60;2.40;;;23.80;43.80;;;;;;5027287;28;20436;-74
2022/04/28 12:40:26;;;;;;;3.70;3.40;;;23.80;44.00;;;;;;5030723;28;20439;-75
2022/04/28 12:42:53;;;;;;;2.90;2.70;;;24.00;46.60;;;;;;5030452;28;20473;-75
2022/04/28 12:45:50;;;;;;;3.90;3.53;;;24.00;45.30;;;;;;5030764;28;20427;-74
2022/04/28 12:48:31;;;;;;;2.60;2.40;;;23.70;44.70;;;;;;5030728;28;20463;-75
2022/04/28 12:51:10;;;;;;;3.40;3.20;;;23.80;43.20;;;;;;5012893;28;20432;-75
2022/04/28 12:53:36;;;;;;;3.70;3.30;;;24.00;42.80;;;;;;5030725;28;20427;-75
2022/04/28 12:56:07;;;;;;;3.03;2.67;;;24.20;44.40;;;;;;5012866;28;20436;-74
2022/04/28 12:58:40;;;;;;;3.70;3.40;;;24.30;41.70;;;;;;5030920;28;20782;-75
2022/04/28 13:01:15;;;;;;;4.00;3.60;;;24.10;41.80;;;;;;5031126;28;20416;-76
2022/04/28 13:03:41;;;;;;;4.93;3.70;;;23.30;41.00;;;;;;5012460;28;20459;-75
2022/04/28 13:06:08;;;;;;;8.07;3.83;;;22.80;42.80;;;;;;5030928;28;20918;-75
2022/04/28 13:08:34;;;;;;;5.50;4.07;;;23.00;44.10;;;;;;5012984;28;20435;-75
2022/04/28 13:11:01;;;;;;;4.53;4.13;;;22.50;45.50;;;;;;5030681;28;21438;-75
2022/04/28 13:13:27;;;;;;;6.00;3.80;;;22.50;43.60;;;;;;5030757;28;20428;-75
2022/04/28 13:15:53;;;;;;;5.60;3.60;;;21.70;43.50;;;;;;5030768;28;20419;-75
2022/04/28 13:18:19;;;;;;;5.37;3.57;;;22.20;45.00;;;;;;5030624;28;20446;-75
2022/04/28 13:20:44;;;;;;;6.03;3.83;;;22.10;45.10;;;;;;5012565;28;20235;-75